createdAt,value
2022-09-02T00:01:38.025Z,15.35
2022-09-02T00:04:20.136Z,15.31
2022-09-02T00:06:47.802Z,15.34
2022-09-02T00:09:16.721Z,15.29
2022-09-02T00:11:45.352Z,15.26
2022-09-02T00:14:16.268Z,15.23
2022-09-02T00:16:45.217Z,15.16
2022-09-02T00:19:47.782Z,15.17
2022-09-02T00:22:14.224Z,15.04
2022-09-02T00:24:40.705Z,14.97
2022-09-02T00:27:07.408Z,15.15
2022-09-02T00:29:33.850Z,15.11
2022-09-02T00:32:00.643Z,15.08
2022-09-02T00:34:27.230Z,14.92
2022-09-02T00:36:53.680Z,14.87
2022-09-02T00:39:20.314Z,14.85
2022-09-02T00:41:47.112Z,14.77
2022-09-02T00:44:16.147Z,14.85
2022-09-02T00:46:42.845Z,14.89
2022-09-02T00:49:14.324Z,14.70
2022-09-02T00:51:48.761Z,14.53
2022-09-02T00:54:17.266Z,14.56
2022-09-02T00:56:45.383Z,14.59
2022-09-02T00:59:21.314Z,14.59
2022-09-02T01:01:48.814Z,14.38
2022-09-02T01:04:17.131Z,14.38
2022-09-02T01:06:44.217Z,14.49
2022-09-02T01:09:14.711Z,14.52
2022-09-02T01:11:50.917Z,14.33
2022-09-02T01:14:18.106Z,14.42
2022-09-02T01:16:53.131Z,14.26
2022-09-02T01:19:35.779Z,14.25
2022-09-02T01:22:02.821Z,14.33
2022-09-02T01:24:31.599Z,14.24
2022-09-02T01:26:59.354Z,13.99
2022-09-02T01:29:27.232Z,14.25
2022-09-02T01:31:54.223Z,14.12
2022-09-02T01:34:21.109Z,14.16
2022-09-02T01:36:47.737Z,14.17
2022-09-02T01:39:14.419Z,14.19
2022-09-02T01:41:41.364Z,14.12
2022-09-02T01:44:08.235Z,14.15
2022-09-02T01:46:36.286Z,14.19
2022-09-02T01:49:03.521Z,14.18
2022-09-02T01:51:30.002Z,14.20
2022-09-02T01:53:56.481Z,14.25
2022-09-02T01:56:23.034Z,14.22
2022-09-02T01:58:49.472Z,14.19
2022-09-02T02:01:15.921Z,14.17
2022-09-02T02:03:42.776Z,14.13
2022-09-02T02:06:14.179Z,14.11
2022-09-02T02:08:40.773Z,14.16
2022-09-02T02:11:20.327Z,14.16
2022-09-02T02:13:46.924Z,14.17
2022-09-02T02:16:13.911Z,14.08
2022-09-02T02:18:40.614Z,14.02
2022-09-02T02:21:07.392Z,14.14
2022-09-02T02:23:34.009Z,14.13
2022-09-02T02:26:00.490Z,14.06
2022-09-02T02:28:27.167Z,13.98
2022-09-02T02:30:54.684Z,14.00
2022-09-02T02:33:21.375Z,13.95
2022-09-02T02:35:52.586Z,13.90
2022-09-02T02:38:22.387Z,13.88
2022-09-02T02:40:48.868Z,13.79
2022-09-02T02:43:15.307Z,13.91
2022-09-02T02:45:41.782Z,13.75
2022-09-02T02:48:08.394Z,13.90
2022-09-02T02:50:34.855Z,13.93
2022-09-02T02:53:02.776Z,13.82
2022-09-02T02:55:29.675Z,13.87
2022-09-02T02:57:56.143Z,13.85
2022-09-02T03:00:25.919Z,13.84
2022-09-02T03:03:19.942Z,13.66
2022-09-02T03:05:47.523Z,13.68
2022-09-02T03:08:14.499Z,13.67
2022-09-02T03:10:42.046Z,13.79
2022-09-02T03:13:10.388Z,13.72
2022-09-02T03:15:38.929Z,13.64
2022-09-02T03:18:06.030Z,13.63
2022-09-02T03:20:32.838Z,13.73
2022-09-02T03:23:00.123Z,13.51
2022-09-02T03:25:31.200Z,13.62
2022-09-02T03:28:01.565Z,13.53
2022-09-02T03:30:30.859Z,13.62
2022-09-02T03:33:03.879Z,13.53
2022-09-02T03:35:31.611Z,13.63
2022-09-02T03:37:59.905Z,13.64
2022-09-02T03:40:28.551Z,13.65
2022-09-02T03:42:59.920Z,13.67
2022-09-02T03:45:29.334Z,13.67
2022-09-02T03:47:56.335Z,13.78
2022-09-02T03:50:30.063Z,13.73
2022-09-02T03:52:57.193Z,13.66
2022-09-02T03:55:24.322Z,13.64
2022-09-02T03:57:50.948Z,13.56
2022-09-02T04:00:20.739Z,13.76
2022-09-02T04:02:49.029Z,13.81
2022-09-02T04:05:17.113Z,13.83
2022-09-02T04:07:53.895Z,13.75
2022-09-02T04:10:28.565Z,13.74
2022-09-02T04:12:55.147Z,13.78
2022-09-02T04:15:31.840Z,13.82
2022-09-02T04:17:58.815Z,13.85
2022-09-02T04:20:25.690Z,13.88
2022-09-02T04:22:52.234Z,14.14
2022-09-02T04:25:19.068Z,14.07
2022-09-02T04:27:50.778Z,14.14
2022-09-02T04:30:18.403Z,14.07
2022-09-02T04:32:45.286Z,13.98
2022-09-02T04:35:23.287Z,14.01
2022-09-02T04:37:52.932Z,13.91
2022-09-02T04:40:19.367Z,14.12
2022-09-02T04:42:46.333Z,13.87
2022-09-02T04:45:12.793Z,13.88
2022-09-02T04:47:39.214Z,13.92
2022-09-02T04:50:14.966Z,14.08
2022-09-02T04:53:00.005Z,14.07
2022-09-02T04:55:26.465Z,14.23
2022-09-02T04:57:52.946Z,14.01
2022-09-02T05:00:19.531Z,14.25
2022-09-02T05:02:48.077Z,14.04
2022-09-02T05:05:14.998Z,14.23
2022-09-02T05:07:41.583Z,14.38
2022-09-02T05:10:08.615Z,14.54
2022-09-02T05:12:36.530Z,14.51
2022-09-02T05:15:03.709Z,14.53
2022-09-02T05:17:33.716Z,14.71
2022-09-02T05:20:00.296Z,14.76
2022-09-02T05:22:29.525Z,14.68
2022-09-02T05:25:11.310Z,14.75
2022-09-02T05:27:38.526Z,14.77
2022-09-02T05:30:05.602Z,14.77
2022-09-02T05:32:35.646Z,14.48
2022-09-02T05:35:04.552Z,14.60
2022-09-02T05:37:31.204Z,14.73
2022-09-02T05:39:57.774Z,14.84
2022-09-02T05:43:09.040Z,14.94
2022-09-02T05:45:39.297Z,14.86
2022-09-02T05:48:25.799Z,15.03
2022-09-02T05:51:37.414Z,14.87
2022-09-02T05:54:04.192Z,15.11
2022-09-02T05:56:30.695Z,15.07
2022-09-02T05:58:58.727Z,15.13
2022-09-02T06:01:34.993Z,15.13
2022-09-02T06:04:14.754Z,15.17
2022-09-02T06:07:25.117Z,15.27
2022-09-02T06:09:52.520Z,15.29
2022-09-02T06:12:20.464Z,15.37
2022-09-02T06:14:48.635Z,15.40
2022-09-02T06:17:15.729Z,15.41
2022-09-02T06:19:42.708Z,15.47
2022-09-02T06:22:09.394Z,15.55
2022-09-02T06:24:38.050Z,15.65
2022-09-02T06:27:04.902Z,15.64
2022-09-02T06:29:31.583Z,15.72
2022-09-02T06:31:58.807Z,15.78
2022-09-02T06:34:27.377Z,15.76
2022-09-02T06:36:53.876Z,15.78
2022-09-02T06:39:21.750Z,15.83
2022-09-02T06:41:49.190Z,15.86
2022-09-02T06:44:16.469Z,15.86
2022-09-02T06:46:47.678Z,15.74
2022-09-02T06:49:16.537Z,15.95
2022-09-02T06:51:45.772Z,15.96
2022-09-02T06:54:16.408Z,15.94
2022-09-02T06:56:57.373Z,16.12
2022-09-02T06:59:23.922Z,16.22
2022-09-02T07:02:38.313Z,16.41
2022-09-02T07:05:15.049Z,16.45
2022-09-02T07:07:43.185Z,16.58
2022-09-02T07:10:12.259Z,16.67
2022-09-02T07:12:40.032Z,16.82
2022-09-02T07:15:11.420Z,16.96
2022-09-02T07:17:38.641Z,17.05
2022-09-02T07:20:06.091Z,17.25
2022-09-02T07:22:32.554Z,17.45
2022-09-02T07:24:59.046Z,17.58
2022-09-02T07:31:14.148Z,17.90
2022-09-02T07:33:59.014Z,17.91
2022-09-02T07:36:26.458Z,18.02
2022-09-02T07:38:53.920Z,17.98
2022-09-02T07:41:20.783Z,17.93
2022-09-02T07:43:51.043Z,17.95
2022-09-02T07:46:18.333Z,18.06
2022-09-02T07:48:45.204Z,18.03
2022-09-02T07:51:39.725Z,18.04
2022-09-02T07:54:08.404Z,18.05
2022-09-02T07:56:35.033Z,18.21
2022-09-02T07:59:13.876Z,18.12
2022-09-02T08:04:13.381Z,18.37
2022-09-02T08:06:39.889Z,18.14
2022-09-02T08:09:11.882Z,18.15
2022-09-02T08:11:40.208Z,18.42
2022-09-02T08:14:08.674Z,18.88
2022-09-02T08:16:35.813Z,18.88
2022-09-02T08:19:02.311Z,18.80
2022-09-02T08:21:29.422Z,18.67
2022-09-02T08:23:57.434Z,18.62
2022-09-02T08:26:23.939Z,18.57
2022-09-02T08:28:50.473Z,18.84
2022-09-02T08:31:19.073Z,19.06
2022-09-02T08:33:45.653Z,19.08
2022-09-02T08:36:14.941Z,19.10
2022-09-02T08:38:42.669Z,19.38
2022-09-02T08:41:26.508Z,19.31
2022-09-02T08:44:18.927Z,19.25
2022-09-02T08:46:45.314Z,19.47
2022-09-02T08:49:25.777Z,19.45
2022-09-02T08:52:01.766Z,19.74
2022-09-02T08:54:44.513Z,19.64
2022-09-02T08:57:11.499Z,19.72
2022-09-02T08:59:38.491Z,19.81
2022-09-02T09:02:05.233Z,19.79
2022-09-02T09:04:37.755Z,19.81
2022-09-02T09:07:19.048Z,19.69
2022-09-02T09:09:57.224Z,19.78
2022-09-02T09:12:32.534Z,19.87
2022-09-02T09:15:18.730Z,20.08
2022-09-02T09:17:59.890Z,20.28
2022-09-02T09:20:55.681Z,20.47
2022-09-02T09:23:34.703Z,20.75
2022-09-02T09:26:39.454Z,21.18
2022-09-02T09:30:06.484Z,21.52
2022-09-02T09:32:36.583Z,21.32
2022-09-02T09:35:07.112Z,21.51
2022-09-02T09:37:36.450Z,21.76
2022-09-02T09:40:31.089Z,21.91
2022-09-02T09:44:02.187Z,21.68
2022-09-02T09:46:32.302Z,21.78
2022-09-02T09:49:03.967Z,21.99
2022-09-02T09:51:30.417Z,22.24
2022-09-02T09:55:20.908Z,22.19
2022-09-02T09:58:08.317Z,22.50
2022-09-02T10:01:22.009Z,22.47
2022-09-02T10:04:42.247Z,22.83
2022-09-02T10:07:11.384Z,23.05
2022-09-02T10:09:37.817Z,22.96
2022-09-02T10:12:05.653Z,22.78
2022-09-02T10:14:53.389Z,23.23
2022-09-02T10:17:41.878Z,23.87
2022-09-02T10:20:22.810Z,23.93
2022-09-02T10:26:43.718Z,23.87
2022-09-02T10:33:06.909Z,23.68
2022-09-02T10:35:44.305Z,23.86
2022-09-02T10:38:16.466Z,23.77
2022-09-02T10:41:24.459Z,24.32
2022-09-02T10:44:14.348Z,24.58
2022-09-02T10:47:01.756Z,24.13
2022-09-02T10:50:00.939Z,23.74
2022-09-02T10:52:31.562Z,23.93
2022-09-02T10:55:06.802Z,24.63
2022-09-02T10:57:38.755Z,25.31
2022-09-02T11:00:09.166Z,25.34
2022-09-02T11:02:38.956Z,25.80
2022-09-02T11:05:13.282Z,25.80
2022-09-02T11:07:49.784Z,25.14
2022-09-02T11:10:21.242Z,25.00
2022-09-02T11:12:52.704Z,24.72
2022-09-02T11:15:24.069Z,24.80
2022-09-02T11:17:55.845Z,24.84
2022-09-02T11:20:44.520Z,24.95
2022-09-02T11:23:57.798Z,25.04
2022-09-02T11:30:21.826Z,24.54
2022-09-02T11:32:57.108Z,24.55
2022-09-02T11:35:27.957Z,24.32
2022-09-02T11:41:51.382Z,24.81
2022-09-02T11:44:36.478Z,24.93
2022-09-02T11:47:15.475Z,25.03
2022-09-02T11:53:41.294Z,26.19
2022-09-02T11:59:51.166Z,28.07
2022-09-02T12:02:50.849Z,28.87
2022-09-02T12:16:37.449Z,30.45
2022-09-02T12:19:07.371Z,30.45
2022-09-02T12:21:38.921Z,29.31
2022-09-02T12:24:09.100Z,28.06
2022-09-02T12:31:09.412Z,28.52
2022-09-02T12:37:53.912Z,29.43
2022-09-02T12:40:29.788Z,29.32
2022-09-02T12:43:03.630Z,27.93
2022-09-02T12:45:30.785Z,27.23
2022-09-02T12:48:39.472Z,27.69
2022-09-02T12:51:08.714Z,28.80
2022-09-02T12:53:40.994Z,29.49
2022-09-02T12:56:13.324Z,31.31
2022-09-02T12:58:46.513Z,31.16
2022-09-02T13:01:42.459Z,32.04
2022-09-02T13:04:34.202Z,32.21
2022-09-02T13:07:22.447Z,31.23
2022-09-02T13:10:16.833Z,32.12
2022-09-02T13:13:14.642Z,31.59
2022-09-02T13:15:59.501Z,31.62
2022-09-02T13:19:03.503Z,29.04
2022-09-02T13:21:44.294Z,27.60
2022-09-02T13:24:15.306Z,28.14
2022-09-02T13:26:50.993Z,29.51
2022-09-02T13:29:42.196Z,32.16
2022-09-02T13:32:17.775Z,31.91
2022-09-02T13:34:46.124Z,31.86
2022-09-02T13:37:38.603Z,31.99
2022-09-02T13:40:27.980Z,31.04
2022-09-02T13:42:57.404Z,29.30
2022-09-02T13:45:29.126Z,28.47
2022-09-02T13:47:57.684Z,27.64
2022-09-02T13:50:29.979Z,26.89
2022-09-02T13:55:55.312Z,26.34
2022-09-02T13:58:33.859Z,26.62
2022-09-02T14:01:30.741Z,27.07
2022-09-02T14:03:59.828Z,27.95
2022-09-02T14:06:31.142Z,27.70
2022-09-02T14:09:00.647Z,28.09
2022-09-02T14:11:28.300Z,27.61
2022-09-02T14:13:55.919Z,27.17
2022-09-02T14:16:36.239Z,27.01
2022-09-02T14:19:04.722Z,26.74
2022-09-02T14:21:32.130Z,27.50
2022-09-02T14:23:58.868Z,27.85
2022-09-02T14:26:30.607Z,27.09
2022-09-02T14:28:57.323Z,26.87
2022-09-02T14:31:29.378Z,26.26
2022-09-02T14:33:56.692Z,25.74
2022-09-02T14:36:26.113Z,26.08
2022-09-02T14:38:55.551Z,28.01
2022-09-02T14:41:35.986Z,28.90
2022-09-02T14:44:16.625Z,29.11
2022-09-02T14:46:48.078Z,29.78
2022-09-02T14:49:21.730Z,29.53
2022-09-02T14:51:53.868Z,29.09
2022-09-02T14:54:42.753Z,27.93
2022-09-02T14:57:32.681Z,27.35
2022-09-02T15:00:11.630Z,27.42
2022-09-02T15:02:43.045Z,27.81
2022-09-02T15:05:14.704Z,27.93
2022-09-02T15:07:41.446Z,27.68
2022-09-02T15:10:09.672Z,29.17
2022-09-02T15:12:45.203Z,29.93
2022-09-02T15:15:11.748Z,30.42
2022-09-02T15:17:38.320Z,29.13
2022-09-02T15:20:06.754Z,28.16
2022-09-02T15:22:38.399Z,27.61
2022-09-02T15:25:07.958Z,27.32
2022-09-02T15:27:34.858Z,27.53
2022-09-02T15:30:05.010Z,27.76
2022-09-02T15:32:31.702Z,27.65
2022-09-02T15:34:58.246Z,27.21
2022-09-02T15:37:29.006Z,27.00
2022-09-02T15:39:55.961Z,26.71
2022-09-02T15:42:22.578Z,26.49
2022-09-02T15:44:49.143Z,27.35
2022-09-02T15:47:15.652Z,28.60
2022-09-02T15:49:42.612Z,29.78
2022-09-02T15:52:09.157Z,30.63
2022-09-02T15:54:35.631Z,30.43
2022-09-02T15:57:02.126Z,30.28
2022-09-02T15:59:28.682Z,30.24
2022-09-02T16:01:56.599Z,29.71
2022-09-02T16:04:23.499Z,29.78
2022-09-02T16:06:52.326Z,29.12
2022-09-02T16:09:19.611Z,28.78
2022-09-02T16:11:48.934Z,29.00
2022-09-02T16:14:20.779Z,28.75
2022-09-02T16:16:49.326Z,29.29
2022-09-02T16:19:18.336Z,29.19
2022-09-02T16:21:44.785Z,29.79
2022-09-02T16:24:11.251Z,30.14
2022-09-02T16:26:39.315Z,29.96
2022-09-02T16:29:08.243Z,29.75
2022-09-02T16:31:38.206Z,28.35
2022-09-02T16:34:06.739Z,27.15
2022-09-02T16:36:35.375Z,27.45
2022-09-02T16:39:03.157Z,27.12
2022-09-02T16:41:34.779Z,26.81
2022-09-02T16:44:02.042Z,26.91
2022-09-02T16:46:29.704Z,27.11
2022-09-02T16:48:56.364Z,27.72
2022-09-02T16:51:24.201Z,28.22
2022-09-02T16:54:02.809Z,29.27
2022-09-02T16:56:30.561Z,30.23
2022-09-02T16:59:01.633Z,30.58
2022-09-02T17:04:15.814Z,29.54
2022-09-02T17:07:34.332Z,28.99
2022-09-02T17:10:01.002Z,27.72
2022-09-02T17:12:27.458Z,27.44
2022-09-02T17:14:53.914Z,27.07
2022-09-02T17:17:20.376Z,26.49
2022-09-02T17:19:47.078Z,26.34
2022-09-02T17:22:13.737Z,25.81
2022-09-02T17:24:41.916Z,25.65
2022-09-02T17:27:08.864Z,25.64
2022-09-02T17:29:50.617Z,25.13
2022-09-02T17:32:18.251Z,24.78
2022-09-02T17:34:44.709Z,24.70
2022-09-02T17:37:11.147Z,24.68
2022-09-02T17:39:37.731Z,24.63
2022-09-02T17:42:05.307Z,24.43
2022-09-02T17:44:36.215Z,24.30
2022-09-02T17:47:05.708Z,24.28
2022-09-02T17:49:33.869Z,24.21
2022-09-02T17:52:00.666Z,24.21
2022-09-02T17:54:30.443Z,24.24
2022-09-02T17:57:08.870Z,24.08
2022-09-02T18:00:00.576Z,23.76
2022-09-02T18:03:00.092Z,23.82
2022-09-02T18:05:51.936Z,23.69
2022-09-02T18:08:36.665Z,23.40
2022-09-02T18:11:05.157Z,23.18
2022-09-02T18:13:40.208Z,23.37
2022-09-02T18:16:28.659Z,23.31
2022-09-02T18:19:13.388Z,23.07
2022-09-02T18:21:41.847Z,22.99
2022-09-02T18:24:25.248Z,22.86
2022-09-02T18:27:11.575Z,23.05
2022-09-02T18:29:53.388Z,22.89
2022-09-02T18:32:51.203Z,22.89
2022-09-02T18:35:20.675Z,22.73
2022-09-02T18:38:06.555Z,22.61
2022-09-02T18:40:47.478Z,22.65
2022-09-02T18:43:19.751Z,22.62
2022-09-02T18:45:54.750Z,22.34
2022-09-02T18:48:26.546Z,22.35
2022-09-02T18:51:10.142Z,22.22
2022-09-02T18:53:47.361Z,22.20
2022-09-02T18:56:14.942Z,22.29
2022-09-02T18:59:14.639Z,22.07
2022-09-02T19:01:44.743Z,22.02
2022-09-02T19:04:11.397Z,21.92
2022-09-02T19:06:37.926Z,21.89
2022-09-02T19:09:07.382Z,21.97
2022-09-02T19:11:36.210Z,21.98
2022-09-02T19:14:08.731Z,21.88
2022-09-02T19:16:38.398Z,21.83
2022-09-02T19:19:06.440Z,21.83
2022-09-02T19:21:40.711Z,21.90
2022-09-02T19:24:11.104Z,21.54
2022-09-02T19:26:39.148Z,21.57
2022-09-02T19:29:11.328Z,21.51
2022-09-02T19:31:39.960Z,21.46
2022-09-02T19:34:08.246Z,21.47
2022-09-02T19:36:38.611Z,21.34
2022-09-02T19:39:05.470Z,21.40
2022-09-02T19:41:32.032Z,21.20
2022-09-02T19:44:00.059Z,21.12
2022-09-02T19:49:13.058Z,20.98
2022-09-02T19:51:40.865Z,20.88
2022-09-02T19:54:08.507Z,20.81
2022-09-02T19:56:35.275Z,20.83
2022-09-02T19:59:02.066Z,20.72
2022-09-02T20:01:35.581Z,20.69
2022-09-02T20:04:02.113Z,20.70
2022-09-02T20:06:28.759Z,20.62
2022-09-02T20:08:55.408Z,20.45
2022-09-02T20:11:21.850Z,20.30
2022-09-02T20:13:49.923Z,20.15
2022-09-02T20:16:22.276Z,20.00
2022-09-02T20:18:51.126Z,19.98
2022-09-02T20:21:25.198Z,19.92
2022-09-02T20:23:53.892Z,20.00
2022-09-02T20:26:49.971Z,19.82
2022-09-02T20:29:29.818Z,19.81
2022-09-02T20:32:03.663Z,19.55
2022-09-02T20:34:43.009Z,19.51
2022-09-02T20:37:37.059Z,19.48
2022-09-02T20:40:07.073Z,19.33
2022-09-02T20:42:52.280Z,19.33
2022-09-02T20:45:38.948Z,19.25
2022-09-02T20:48:42.535Z,19.13
2022-09-02T20:51:18.889Z,19.07
2022-09-02T20:54:01.232Z,19.03
2022-09-02T20:56:46.389Z,19.05
2022-09-02T20:59:34.910Z,19.09
2022-09-02T21:02:03.142Z,18.93
2022-09-02T21:04:45.677Z,18.86
2022-09-02T21:07:20.848Z,18.82
2022-09-02T21:10:09.220Z,18.77
2022-09-02T21:12:43.044Z,18.82
2022-09-02T21:15:12.613Z,18.79
2022-09-02T21:17:48.235Z,18.69
2022-09-02T21:20:29.896Z,18.44
2022-09-02T21:22:58.702Z,18.44
2022-09-02T21:25:28.760Z,18.50
2022-09-02T21:28:34.942Z,18.30
2022-09-02T21:31:06.984Z,18.24
2022-09-02T21:33:35.268Z,18.37
2022-09-02T21:36:02.682Z,18.31
2022-09-02T21:38:42.789Z,18.22
2022-09-02T21:41:39.459Z,18.17
2022-09-02T21:44:24.853Z,18.04
2022-09-02T21:47:01.405Z,17.86
2022-09-02T21:49:46.732Z,17.88
2022-09-02T21:52:28.147Z,17.95
2022-09-02T21:55:20.538Z,17.85
2022-09-02T21:57:53.829Z,17.81
2022-09-02T22:00:22.154Z,17.53
2022-09-02T22:03:00.354Z,17.72
2022-09-02T22:05:36.122Z,17.54
2022-09-02T22:08:23.497Z,17.63
2022-09-02T22:11:41.175Z,17.62
2022-09-02T22:14:12.395Z,17.67
2022-09-02T22:16:56.118Z,17.61
2022-09-02T22:19:28.990Z,17.64
2022-09-02T22:22:09.140Z,17.56
2022-09-02T22:24:37.362Z,17.48
2022-09-02T22:27:16.653Z,17.35
2022-09-02T22:30:02.392Z,17.29
2022-09-02T22:32:31.859Z,17.40
2022-09-02T22:35:09.415Z,17.33
2022-09-02T22:37:58.260Z,17.17
2022-09-02T22:40:26.133Z,17.07
2022-09-02T22:42:54.226Z,17.02
2022-09-02T22:45:48.913Z,17.07
2022-09-02T22:48:37.639Z,17.12
2022-09-02T22:51:30.674Z,17.10
2022-09-02T22:53:57.283Z,16.87
2022-09-02T22:56:37.274Z,16.89
2022-09-02T22:59:39.387Z,16.85
2022-09-02T23:02:20.336Z,16.63
2022-09-02T23:05:37.233Z,16.65
2022-09-02T23:08:06.246Z,16.82
2022-09-02T23:10:35.210Z,16.78
2022-09-02T23:13:14.213Z,16.73
2022-09-02T23:15:48.058Z,16.87
2022-09-02T23:18:42.217Z,16.82
2022-09-02T23:21:20.021Z,16.82
2022-09-02T23:23:49.606Z,16.79
2022-09-02T23:26:30.423Z,16.85
2022-09-02T23:29:17.685Z,16.87
2022-09-02T23:32:29.990Z,16.81
2022-09-02T23:35:02.443Z,16.82
2022-09-02T23:37:42.597Z,16.99
2022-09-02T23:40:26.507Z,16.89
2022-09-02T23:42:53.514Z,16.73
2022-09-02T23:45:21.912Z,16.67
2022-09-02T23:47:57.330Z,16.71
2022-09-02T23:51:06.295Z,16.61
2022-09-02T23:53:48.681Z,16.38
2022-09-02T23:56:39.908Z,16.45
2022-09-02T23:59:27.698Z,16.30
